createdAt,value
2024-01-31T00:01:04.555Z,93.10
2024-01-31T00:04:06.489Z,93.10
2024-01-31T00:07:08.187Z,93.30
2024-01-31T00:10:10.813Z,93.40
2024-01-31T00:13:12.488Z,93.60
2024-01-31T00:16:15.161Z,93.90
2024-01-31T00:19:16.963Z,94.70
2024-01-31T00:22:18.795Z,95.80
2024-01-31T00:25:20.491Z,96.20
2024-01-31T00:28:22.171Z,96.60
2024-01-31T00:31:23.897Z,97.40
2024-01-31T00:34:25.658Z,97.90
2024-01-31T00:37:27.350Z,98.70
2024-01-31T00:40:29.006Z,99.00
2024-01-31T00:43:30.715Z,99.70
2024-01-31T00:46:32.393Z,100.00
2024-01-31T00:49:34.285Z,100.00
2024-01-31T00:52:36.076Z,100.00
2024-01-31T00:55:37.765Z,100.00
2024-01-31T00:58:39.655Z,100.00
2024-01-31T01:01:41.404Z,100.00
2024-01-31T01:04:43.599Z,100.00
2024-01-31T01:07:46.786Z,100.00
2024-01-31T01:10:48.582Z,100.00
2024-01-31T01:13:50.557Z,100.00
2024-01-31T01:16:52.224Z,100.00
2024-01-31T01:19:53.947Z,100.00
2024-01-31T01:22:56.728Z,100.00
2024-01-31T01:25:58.380Z,100.00
2024-01-31T01:29:00.011Z,100.00
2024-01-31T01:32:01.629Z,100.00
2024-01-31T01:35:03.631Z,100.00
2024-01-31T01:38:05.407Z,100.00
2024-01-31T01:41:07.018Z,100.00
2024-01-31T01:44:08.779Z,100.00
2024-01-31T01:47:10.778Z,100.00
2024-01-31T01:50:12.697Z,100.00
2024-01-31T01:53:14.407Z,100.00
2024-01-31T01:56:16.494Z,100.00
2024-01-31T01:59:18.437Z,100.00
2024-01-31T02:02:20.074Z,100.00
2024-01-31T02:05:21.844Z,100.00
2024-01-31T02:08:23.948Z,100.00
2024-01-31T02:11:25.583Z,100.00
2024-01-31T02:14:27.227Z,100.00
2024-01-31T02:17:29.146Z,100.00
2024-01-31T02:20:30.815Z,100.00
2024-01-31T02:23:32.424Z,100.00
2024-01-31T02:26:35.020Z,100.00
2024-01-31T02:29:38.945Z,100.00
2024-01-31T02:32:40.527Z,100.00
2024-01-31T02:35:42.159Z,100.00
2024-01-31T02:38:43.779Z,100.00
2024-01-31T02:41:45.407Z,100.00
2024-01-31T02:44:47.049Z,100.00
2024-01-31T02:47:48.745Z,100.00
2024-01-31T02:50:50.388Z,100.00
2024-01-31T02:53:52.282Z,100.00
2024-01-31T02:56:54.021Z,100.00
2024-01-31T02:59:55.644Z,100.00
2024-01-31T03:02:57.262Z,100.00
2024-01-31T03:05:59.017Z,100.00
2024-01-31T03:09:00.701Z,100.00
2024-01-31T03:12:05.491Z,100.00
2024-01-31T03:15:07.459Z,100.00
2024-01-31T03:18:09.315Z,100.00
2024-01-31T03:21:11.045Z,100.00
2024-01-31T03:24:13.453Z,100.00
2024-01-31T03:27:17.019Z,100.00
2024-01-31T03:30:18.925Z,100.00
2024-01-31T03:33:20.834Z,100.00
2024-01-31T03:36:22.573Z,100.00
2024-01-31T03:39:24.196Z,100.00
2024-01-31T03:42:25.919Z,100.00
2024-01-31T03:45:27.583Z,100.00
2024-01-31T03:48:29.823Z,100.00
2024-01-31T03:51:31.478Z,100.00
2024-01-31T03:54:33.098Z,100.00
2024-01-31T03:57:34.736Z,100.00
2024-01-31T04:00:36.343Z,100.00
2024-01-31T04:03:39.133Z,100.00
2024-01-31T04:06:40.744Z,100.00
2024-01-31T04:09:42.379Z,100.00
2024-01-31T04:12:44.229Z,100.00
2024-01-31T04:15:46.709Z,100.00
2024-01-31T04:18:48.427Z,100.00
2024-01-31T04:21:50.134Z,100.00
2024-01-31T04:24:53.003Z,100.00
2024-01-31T04:27:54.656Z,100.00
2024-01-31T04:30:56.286Z,100.00
2024-01-31T04:33:58.012Z,100.00
2024-01-31T04:36:59.730Z,100.00
2024-01-31T04:40:01.438Z,100.00
2024-01-31T04:43:03.245Z,100.00
2024-01-31T04:46:05.256Z,100.00
2024-01-31T04:49:07.070Z,100.00
2024-01-31T04:52:08.919Z,100.00
2024-01-31T04:55:10.684Z,100.00
2024-01-31T04:58:14.921Z,100.00
2024-01-31T05:01:16.651Z,100.00
2024-01-31T05:04:18.766Z,100.00
2024-01-31T05:07:20.505Z,100.00
2024-01-31T05:10:22.345Z,100.00
2024-01-31T05:13:24.087Z,100.00
2024-01-31T05:16:25.777Z,100.00
2024-01-31T05:19:30.848Z,100.00
2024-01-31T05:22:33.035Z,100.00
2024-01-31T05:25:34.971Z,100.00
2024-01-31T05:28:38.080Z,100.00
2024-01-31T05:31:39.915Z,100.00
2024-01-31T05:34:45.222Z,100.00
2024-01-31T05:37:47.086Z,100.00
2024-01-31T05:40:48.762Z,100.00
2024-01-31T05:43:50.499Z,100.00
2024-01-31T05:46:52.174Z,100.00
2024-01-31T05:49:53.885Z,100.00
2024-01-31T05:52:55.644Z,100.00
2024-01-31T05:55:58.522Z,100.00
2024-01-31T05:59:00.285Z,100.00
2024-01-31T06:02:02.029Z,100.00
2024-01-31T06:05:03.897Z,100.00
2024-01-31T06:08:08.294Z,100.00
2024-01-31T06:11:10.237Z,100.00
2024-01-31T06:14:11.848Z,100.00
2024-01-31T06:17:15.687Z,100.00
2024-01-31T06:20:17.456Z,100.00
2024-01-31T06:23:22.344Z,100.00
2024-01-31T06:26:25.686Z,100.00
2024-01-31T06:29:27.369Z,100.00
2024-01-31T06:32:36.441Z,100.00
2024-01-31T06:35:41.462Z,100.00
2024-01-31T06:38:43.102Z,100.00
2024-01-31T06:41:45.206Z,100.00
2024-01-31T06:44:47.009Z,100.00
2024-01-31T06:47:48.803Z,100.00
2024-01-31T06:50:52.678Z,100.00
2024-01-31T06:53:54.395Z,100.00
2024-01-31T06:56:56.095Z,100.00
2024-01-31T06:59:57.830Z,100.00
2024-01-31T07:02:59.544Z,100.00
2024-01-31T07:06:01.241Z,100.00
2024-01-31T07:09:02.930Z,100.00
2024-01-31T07:12:05.169Z,100.00
2024-01-31T07:15:07.485Z,100.00
2024-01-31T07:18:09.458Z,100.00
2024-01-31T07:21:14.487Z,100.00
2024-01-31T07:24:24.614Z,100.00
2024-01-31T07:27:31.033Z,100.00
2024-01-31T07:30:33.642Z,100.00
2024-01-31T07:33:36.241Z,100.00
2024-01-31T07:36:37.969Z,100.00
2024-01-31T07:39:39.615Z,100.00
2024-01-31T07:42:41.326Z,100.00
2024-01-31T07:45:43.125Z,100.00
2024-01-31T07:48:44.759Z,100.00
2024-01-31T07:51:46.479Z,100.00
2024-01-31T07:54:48.430Z,100.00
2024-01-31T07:57:50.445Z,100.00
2024-01-31T08:00:55.343Z,100.00
2024-01-31T08:03:57.096Z,100.00
2024-01-31T08:06:59.173Z,100.00
2024-01-31T08:10:00.884Z,100.00
2024-01-31T08:13:04.891Z,100.00
2024-01-31T08:16:13.509Z,100.00
2024-01-31T08:19:15.446Z,100.00
2024-01-31T08:22:17.240Z,100.00
2024-01-31T08:25:19.420Z,100.00
2024-01-31T08:28:21.159Z,100.00
2024-01-31T08:31:23.215Z,100.00
2024-01-31T08:34:28.414Z,100.00
2024-01-31T08:37:32.719Z,100.00
2024-01-31T08:40:34.475Z,100.00
2024-01-31T08:43:36.384Z,100.00
2024-01-31T08:46:48.065Z,100.00
2024-01-31T08:49:59.911Z,100.00
2024-01-31T08:53:02.357Z,100.00
2024-01-31T08:56:09.020Z,97.20
2024-01-31T08:59:11.462Z,98.00
2024-01-31T09:02:13.213Z,97.20
2024-01-31T09:05:15.072Z,96.40
2024-01-31T09:08:16.781Z,96.30
2024-01-31T09:11:19.264Z,95.90
2024-01-31T09:14:20.888Z,95.10
2024-01-31T09:17:22.569Z,94.50
2024-01-31T09:20:24.270Z,94.20
2024-01-31T09:23:25.976Z,93.90
2024-01-31T09:26:27.828Z,93.60
2024-01-31T09:29:29.509Z,93.20
2024-01-31T09:32:31.122Z,92.80
2024-01-31T09:35:32.942Z,92.10
2024-01-31T09:38:36.223Z,91.20
2024-01-31T09:41:37.887Z,89.60
2024-01-31T09:44:40.553Z,88.80
2024-01-31T09:47:46.936Z,88.00
2024-01-31T09:50:49.419Z,86.10
2024-01-31T09:53:54.720Z,85.60
2024-01-31T09:56:56.648Z,83.00
2024-01-31T10:00:01.776Z,82.00
2024-01-31T10:03:05.720Z,79.40
2024-01-31T10:06:09.930Z,80.90
2024-01-31T10:09:13.980Z,80.10
2024-01-31T10:12:18.563Z,76.70
2024-01-31T10:15:20.431Z,76.10
2024-01-31T10:18:23.296Z,75.10
2024-01-31T10:21:24.939Z,72.60
2024-01-31T10:24:26.695Z,71.20
2024-01-31T10:27:28.516Z,70.40
2024-01-31T10:30:30.211Z,70.80
2024-01-31T10:33:33.653Z,70.30
2024-01-31T10:39:42.847Z,68.40
2024-01-31T10:42:48.480Z,68.30
2024-01-31T10:45:50.453Z,68.10
2024-01-31T10:48:52.739Z,66.80
2024-01-31T10:51:58.705Z,68.00
2024-01-31T10:55:04.314Z,66.20
2024-01-31T10:58:07.173Z,65.20
2024-01-31T11:01:13.444Z,66.30
2024-01-31T11:04:15.127Z,65.60
2024-01-31T11:07:23.037Z,67.60
2024-01-31T11:10:27.067Z,66.30
2024-01-31T11:13:28.765Z,66.60
2024-01-31T11:16:30.388Z,66.30
2024-01-31T11:19:35.295Z,66.20
2024-01-31T11:22:37.000Z,67.10
2024-01-31T11:25:39.873Z,67.00
2024-01-31T11:28:43.487Z,67.00
2024-01-31T11:31:45.609Z,65.70
2024-01-31T11:34:59.501Z,65.40
2024-01-31T11:38:02.030Z,65.20
2024-01-31T11:41:04.072Z,65.70
2024-01-31T11:44:05.877Z,65.30
2024-01-31T11:47:07.673Z,65.10
2024-01-31T11:50:09.867Z,67.40
2024-01-31T11:53:11.778Z,66.10
2024-01-31T11:56:13.836Z,64.80
2024-01-31T11:59:15.691Z,65.00
2024-01-31T12:02:17.766Z,64.60
2024-01-31T12:05:19.820Z,65.20
2024-01-31T12:08:27.852Z,65.70
2024-01-31T12:11:29.777Z,65.70
2024-01-31T12:14:31.479Z,65.40
2024-01-31T12:17:33.345Z,64.30
2024-01-31T12:20:35.632Z,65.70
2024-01-31T12:23:37.667Z,66.50
2024-01-31T12:26:39.465Z,66.50
2024-01-31T12:29:41.252Z,66.60
2024-01-31T12:32:42.917Z,65.30
2024-01-31T12:35:45.757Z,64.40
2024-01-31T12:38:47.775Z,65.00
2024-01-31T12:41:51.279Z,64.80
2024-01-31T12:44:53.455Z,64.90
2024-01-31T12:47:55.496Z,63.90
2024-01-31T12:50:58.099Z,63.20
2024-01-31T12:53:59.917Z,63.90
2024-01-31T12:57:01.927Z,64.60
2024-01-31T13:00:05.320Z,63.40
2024-01-31T13:03:07.184Z,63.60
2024-01-31T13:06:13.033Z,63.70
2024-01-31T13:09:16.138Z,64.20
2024-01-31T13:12:17.894Z,63.80
2024-01-31T13:15:20.814Z,64.10
2024-01-31T13:18:22.728Z,62.80
2024-01-31T13:21:24.461Z,63.10
2024-01-31T13:24:26.221Z,63.80
2024-01-31T13:27:27.917Z,64.70
2024-01-31T13:30:29.644Z,64.40
2024-01-31T13:33:31.652Z,64.20
2024-01-31T13:36:33.455Z,64.80
2024-01-31T13:39:35.082Z,63.80
2024-01-31T13:42:36.952Z,63.40
2024-01-31T13:45:38.817Z,63.90
2024-01-31T13:48:40.494Z,63.30
2024-01-31T13:51:43.597Z,62.70
2024-01-31T13:54:45.398Z,63.50
2024-01-31T13:57:47.928Z,63.40
2024-01-31T14:00:49.638Z,62.30
2024-01-31T14:03:51.504Z,63.40
2024-01-31T14:06:54.276Z,62.20
2024-01-31T14:09:56.012Z,62.90
2024-01-31T14:12:57.681Z,62.80
2024-01-31T14:15:59.470Z,64.30
2024-01-31T14:19:01.289Z,62.90
2024-01-31T14:22:12.813Z,63.70
2024-01-31T14:25:21.992Z,63.50
2024-01-31T14:28:23.764Z,64.30
2024-01-31T14:31:25.521Z,64.30
2024-01-31T14:34:27.492Z,65.60
2024-01-31T14:37:29.220Z,65.50
2024-01-31T14:40:30.985Z,65.40
2024-01-31T14:43:34.236Z,64.30
2024-01-31T14:46:35.945Z,64.60
2024-01-31T14:49:37.744Z,64.60
2024-01-31T14:52:40.385Z,65.20
2024-01-31T14:55:42.533Z,64.10
2024-01-31T14:58:44.136Z,64.50
2024-01-31T15:01:47.568Z,65.80
2024-01-31T15:04:49.187Z,65.20
2024-01-31T15:07:50.850Z,65.30
2024-01-31T15:10:52.466Z,65.60
2024-01-31T15:13:54.161Z,65.40
2024-01-31T15:16:55.868Z,65.70
2024-01-31T15:19:57.619Z,66.20
2024-01-31T15:23:00.446Z,66.40
2024-01-31T15:26:02.585Z,66.60
2024-01-31T15:29:04.329Z,66.00
2024-01-31T15:32:06.765Z,65.80
2024-01-31T15:35:12.128Z,66.50
2024-01-31T15:38:13.796Z,66.70
2024-01-31T15:41:16.062Z,67.00
2024-01-31T15:44:24.005Z,67.70
2024-01-31T15:47:25.999Z,67.60
2024-01-31T15:50:27.780Z,68.00
2024-01-31T15:53:29.426Z,68.60
2024-01-31T15:56:31.123Z,68.50
2024-01-31T15:59:33.608Z,68.90
2024-01-31T16:02:35.302Z,69.00
2024-01-31T16:05:37.044Z,69.00
2024-01-31T16:08:38.713Z,68.80
2024-01-31T16:11:42.908Z,68.50
2024-01-31T16:14:44.670Z,68.60
2024-01-31T16:17:47.344Z,68.70
2024-01-31T16:20:49.443Z,69.10
2024-01-31T16:23:51.285Z,69.40
2024-01-31T16:26:53.247Z,69.90
2024-01-31T16:29:55.366Z,70.00
2024-01-31T16:32:57.138Z,70.30
2024-01-31T16:35:59.957Z,70.70
2024-01-31T16:39:02.068Z,71.20
2024-01-31T16:42:04.587Z,71.80
2024-01-31T16:45:08.710Z,72.10
2024-01-31T16:48:11.941Z,72.50
2024-01-31T16:51:13.740Z,72.80
2024-01-31T16:54:15.438Z,73.20
2024-01-31T16:57:17.355Z,73.70
2024-01-31T17:00:19.424Z,74.00
2024-01-31T17:03:22.308Z,74.30
2024-01-31T17:06:24.047Z,74.50
2024-01-31T17:09:25.716Z,75.40
2024-01-31T17:12:27.367Z,76.20
2024-01-31T17:15:29.126Z,76.60
2024-01-31T17:18:30.878Z,76.90
2024-01-31T17:21:32.606Z,77.90
2024-01-31T17:24:36.157Z,78.80
2024-01-31T17:27:39.655Z,79.50
2024-01-31T17:30:41.757Z,79.90
2024-01-31T17:33:44.647Z,80.00
2024-01-31T17:36:47.270Z,80.00
2024-01-31T17:39:48.925Z,80.50
2024-01-31T17:42:50.655Z,80.80
2024-01-31T17:45:53.866Z,81.90
2024-01-31T17:48:55.670Z,82.10
2024-01-31T17:51:57.532Z,82.10
2024-01-31T17:54:59.136Z,82.50
2024-01-31T17:58:04.215Z,82.70
2024-01-31T18:01:05.948Z,82.70
2024-01-31T18:04:09.285Z,82.70
2024-01-31T18:07:10.942Z,82.80
2024-01-31T18:10:12.696Z,83.10
2024-01-31T18:13:14.332Z,83.00
2024-01-31T18:16:16.043Z,83.10
2024-01-31T18:19:17.685Z,83.50
2024-01-31T18:22:19.463Z,83.80
2024-01-31T18:25:21.162Z,84.50
2024-01-31T18:28:24.281Z,85.20
2024-01-31T18:31:27.230Z,86.00
2024-01-31T18:34:28.980Z,86.10
2024-01-31T18:37:30.684Z,86.20
2024-01-31T18:40:32.736Z,86.50
2024-01-31T18:43:35.283Z,86.70
2024-01-31T18:46:39.186Z,86.90
2024-01-31T18:49:41.078Z,87.10
2024-01-31T18:52:43.169Z,88.10
2024-01-31T18:55:44.893Z,88.30
2024-01-31T18:58:46.518Z,88.50
2024-01-31T19:01:48.130Z,88.40
2024-01-31T19:04:56.019Z,88.30
2024-01-31T19:08:01.850Z,88.10
2024-01-31T19:11:03.582Z,88.10
2024-01-31T19:14:06.714Z,88.20
2024-01-31T19:17:18.478Z,87.90
2024-01-31T19:20:25.938Z,88.10
2024-01-31T19:23:27.775Z,88.40
2024-01-31T19:26:29.780Z,88.70
2024-01-31T19:29:33.523Z,88.80
2024-01-31T19:32:35.218Z,88.70
2024-01-31T19:35:37.046Z,88.60
2024-01-31T19:38:38.707Z,88.40
2024-01-31T19:41:41.109Z,88.30
2024-01-31T19:44:43.719Z,88.40
2024-01-31T19:47:45.466Z,88.40
2024-01-31T19:50:47.238Z,88.30
2024-01-31T19:53:52.609Z,88.40
2024-01-31T19:56:55.453Z,88.40
2024-01-31T19:59:57.341Z,88.30
2024-01-31T20:02:59.098Z,88.30
2024-01-31T20:06:01.031Z,88.20
2024-01-31T20:09:05.693Z,88.20
2024-01-31T20:12:07.922Z,88.20
2024-01-31T20:15:10.073Z,88.10
2024-01-31T20:18:13.038Z,88.10
2024-01-31T20:21:15.069Z,88.00
2024-01-31T20:24:16.910Z,87.90
2024-01-31T20:27:18.960Z,88.00
2024-01-31T20:30:22.035Z,88.00
2024-01-31T20:33:23.801Z,88.00
2024-01-31T20:36:25.538Z,88.00
2024-01-31T20:39:27.158Z,87.80
2024-01-31T20:42:28.812Z,88.00
2024-01-31T20:45:32.329Z,88.00
2024-01-31T20:48:40.750Z,88.10
2024-01-31T20:51:43.348Z,88.50
2024-01-31T20:54:45.193Z,88.80
2024-01-31T20:57:46.950Z,89.20
2024-01-31T21:00:48.776Z,89.40
2024-01-31T21:03:50.558Z,89.60
2024-01-31T21:06:52.510Z,89.70
2024-01-31T21:09:54.249Z,89.90
2024-01-31T21:12:55.856Z,89.90
2024-01-31T21:15:57.535Z,89.90
2024-01-31T21:18:59.548Z,89.80
2024-01-31T21:22:01.320Z,89.80
2024-01-31T21:25:04.381Z,89.70
2024-01-31T21:28:06.361Z,89.50
2024-01-31T21:31:08.006Z,89.30
2024-01-31T21:34:09.783Z,89.20
2024-01-31T21:37:11.667Z,89.00
2024-01-31T21:40:14.385Z,88.80
2024-01-31T21:43:16.013Z,88.50
2024-01-31T21:46:17.657Z,88.20
2024-01-31T21:49:19.367Z,87.80
2024-01-31T21:52:21.039Z,87.50
2024-01-31T21:55:23.090Z,87.30
2024-01-31T21:58:24.704Z,87.20
2024-01-31T22:01:26.614Z,86.90
2024-01-31T22:04:32.650Z,86.60
2024-01-31T22:07:35.408Z,86.20
2024-01-31T22:10:37.053Z,86.10
2024-01-31T22:13:39.148Z,86.00
2024-01-31T22:16:40.849Z,85.90
2024-01-31T22:19:42.893Z,85.80
2024-01-31T22:22:44.505Z,85.90
2024-01-31T22:25:46.181Z,86.00
2024-01-31T22:28:47.787Z,85.90
2024-01-31T22:31:49.422Z,85.90
2024-01-31T22:34:51.053Z,85.90
2024-01-31T22:37:52.706Z,85.80
2024-01-31T22:40:56.555Z,85.70
2024-01-31T22:44:04.693Z,85.60
2024-01-31T22:47:06.718Z,85.50
2024-01-31T22:50:08.831Z,85.20
2024-01-31T22:53:10.601Z,84.90
2024-01-31T22:56:12.256Z,84.50
2024-01-31T22:59:14.049Z,84.50
2024-01-31T23:02:16.103Z,84.30
2024-01-31T23:05:17.859Z,84.00
2024-01-31T23:08:19.583Z,83.80
2024-01-31T23:11:21.500Z,83.80
2024-01-31T23:14:23.223Z,83.90
2024-01-31T23:17:25.030Z,83.40
2024-01-31T23:20:26.769Z,82.50
2024-01-31T23:23:28.484Z,82.00
2024-01-31T23:26:30.132Z,81.20
2024-01-31T23:29:31.831Z,80.40
2024-01-31T23:32:33.559Z,79.80
2024-01-31T23:35:35.317Z,79.80
2024-01-31T23:38:37.067Z,79.80
2024-01-31T23:41:38.792Z,80.00
2024-01-31T23:44:40.466Z,80.40
2024-01-31T23:47:42.310Z,80.70
2024-01-31T23:50:44.102Z,80.90
2024-01-31T23:53:45.987Z,81.10
2024-01-31T23:56:47.951Z,80.90
2024-01-31T23:59:49.688Z,80.80
